sensor_id;sensor_type;location;lat;lon;timestamp;P1;durP1;ratioP1;P2;durP2;ratioP2
29838;SDS011;18669;53.356;-1.464;2023-08-06T00:01:19;6.72;;;2.92;;
29838;SDS011;18669;53.356;-1.464;2023-08-06T00:04:05;10.20;;;3.00;;
29838;SDS011;18669;53.356;-1.464;2023-08-06T00:06:50;4.18;;;2.80;;
29838;SDS011;18669;53.356;-1.464;2023-08-06T00:09:35;6.22;;;2.60;;
29838;SDS011;18669;53.356;-1.464;2023-08-06T00:12:20;9.98;;;3.15;;
29838;SDS011;18669;53.356;-1.464;2023-08-06T00:15:05;9.63;;;3.20;;
29838;SDS011;18669;53.356;-1.464;2023-08-06T00:17:50;5.70;;;2.97;;
29838;SDS011;18669;53.356;-1.464;2023-08-06T00:20:35;8.25;;;3.17;;
29838;SDS011;18669;53.356;-1.464;2023-08-06T00:23:19;7.40;;;2.88;;
29838;SDS011;18669;53.356;-1.464;2023-08-06T00:26:06;4.63;;;2.80;;
29838;SDS011;18669;53.356;-1.464;2023-08-06T00:28:51;5.90;;;2.90;;
29838;SDS011;18669;53.356;-1.464;2023-08-06T00:31:36;6.53;;;3.38;;
29838;SDS011;18669;53.356;-1.464;2023-08-06T00:34:21;7.50;;;3.00;;
29838;SDS011;18669;53.356;-1.464;2023-08-06T00:37:06;5.80;;;2.95;;
29838;SDS011;18669;53.356;-1.464;2023-08-06T00:39:51;5.10;;;2.90;;
29838;SDS011;18669;53.356;-1.464;2023-08-06T00:42:36;4.93;;;2.83;;
29838;SDS011;18669;53.356;-1.464;2023-08-06T00:45:21;6.43;;;2.92;;
29838;SDS011;18669;53.356;-1.464;2023-08-06T00:48:06;9.20;;;3.10;;
29838;SDS011;18669;53.356;-1.464;2023-08-06T00:50:51;7.43;;;3.22;;
29838;SDS011;18669;53.356;-1.464;2023-08-06T00:53:39;7.07;;;3.05;;
29838;SDS011;18669;53.356;-1.464;2023-08-06T00:56:25;3.53;;;3.15;;
29838;SDS011;18669;53.356;-1.464;2023-08-06T00:59:10;4.88;;;2.58;;
29838;SDS011;18669;53.356;-1.464;2023-08-06T01:01:56;5.90;;;3.00;;
29838;SDS011;18669;53.356;-1.464;2023-08-06T01:04:41;6.45;;;2.95;;
29838;SDS011;18669;53.356;-1.464;2023-08-06T01:10:35;6.55;;;2.95;;
29838;SDS011;18669;53.356;-1.464;2023-08-06T01:16:19;6.03;;;2.80;;
29838;SDS011;18669;53.356;-1.464;2023-08-06T01:19:15;6.47;;;3.05;;
29838;SDS011;18669;53.356;-1.464;2023-08-06T01:22:03;6.13;;;2.70;;
29838;SDS011;18669;53.356;-1.464;2023-08-06T01:24:49;7.18;;;2.70;;
29838;SDS011;18669;53.356;-1.464;2023-08-06T01:27:38;7.05;;;3.22;;
29838;SDS011;18669;53.356;-1.464;2023-08-06T01:30:33;5.25;;;2.80;;
29838;SDS011;18669;53.356;-1.464;2023-08-06T01:33:21;8.27;;;3.25;;
29838;SDS011;18669;53.356;-1.464;2023-08-06T01:36:07;7.28;;;3.00;;
29838;SDS011;18669;53.356;-1.464;2023-08-06T01:38:52;9.55;;;3.05;;
29838;SDS011;18669;53.356;-1.464;2023-08-06T01:41:38;7.43;;;2.85;;
29838;SDS011;18669;53.356;-1.464;2023-08-06T01:44:23;6.63;;;2.80;;
29838;SDS011;18669;53.356;-1.464;2023-08-06T01:47:07;9.05;;;3.08;;
29838;SDS011;18669;53.356;-1.464;2023-08-06T01:49:52;6.30;;;3.13;;
29838;SDS011;18669;53.356;-1.464;2023-08-06T01:52:37;5.82;;;3.00;;
29838;SDS011;18669;53.356;-1.464;2023-08-06T01:55:22;8.13;;;3.40;;
29838;SDS011;18669;53.356;-1.464;2023-08-06T01:58:07;5.20;;;2.97;;
29838;SDS011;18669;53.356;-1.464;2023-08-06T02:00:52;12.13;;;3.40;;
29838;SDS011;18669;53.356;-1.464;2023-08-06T02:03:37;5.82;;;3.00;;
29838;SDS011;18669;53.356;-1.464;2023-08-06T02:06:22;6.80;;;3.17;;
29838;SDS011;18669;53.356;-1.464;2023-08-06T02:09:07;6.47;;;2.83;;
29838;SDS011;18669;53.356;-1.464;2023-08-06T02:11:52;5.53;;;2.83;;
29838;SDS011;18669;53.356;-1.464;2023-08-06T02:14:37;8.55;;;3.22;;
29838;SDS011;18669;53.356;-1.464;2023-08-06T02:17:21;3.60;;;2.40;;
29838;SDS011;18669;53.356;-1.464;2023-08-06T02:20:07;8.52;;;3.45;;
29838;SDS011;18669;53.356;-1.464;2023-08-06T02:22:52;10.93;;;2.60;;
29838;SDS011;18669;53.356;-1.464;2023-08-06T02:25:36;8.90;;;3.08;;
29838;SDS011;18669;53.356;-1.464;2023-08-06T02:28:21;4.13;;;2.80;;
29838;SDS011;18669;53.356;-1.464;2023-08-06T02:31:06;4.20;;;2.53;;
29838;SDS011;18669;53.356;-1.464;2023-08-06T02:33:51;4.55;;;2.88;;
29838;SDS011;18669;53.356;-1.464;2023-08-06T02:36:38;4.97;;;2.83;;
29838;SDS011;18669;53.356;-1.464;2023-08-06T02:39:23;4.63;;;2.75;;
29838;SDS011;18669;53.356;-1.464;2023-08-06T02:42:07;6.07;;;2.90;;
29838;SDS011;18669;53.356;-1.464;2023-08-06T02:44:53;6.93;;;3.20;;
29838;SDS011;18669;53.356;-1.464;2023-08-06T02:47:40;9.00;;;3.28;;
29838;SDS011;18669;53.356;-1.464;2023-08-06T02:50:25;7.80;;;3.00;;
29838;SDS011;18669;53.356;-1.464;2023-08-06T02:53:10;5.72;;;2.65;;
29838;SDS011;18669;53.356;-1.464;2023-08-06T02:55:55;6.50;;;3.53;;
29838;SDS011;18669;53.356;-1.464;2023-08-06T02:58:40;4.70;;;2.60;;
29838;SDS011;18669;53.356;-1.464;2023-08-06T03:01:25;5.75;;;2.70;;
29838;SDS011;18669;53.356;-1.464;2023-08-06T03:04:11;5.17;;;2.70;;
29838;SDS011;18669;53.356;-1.464;2023-08-06T03:06:56;4.20;;;2.88;;
29838;SDS011;18669;53.356;-1.464;2023-08-06T03:09:41;5.20;;;2.70;;
29838;SDS011;18669;53.356;-1.464;2023-08-06T03:12:26;9.35;;;2.90;;
29838;SDS011;18669;53.356;-1.464;2023-08-06T03:15:11;5.13;;;2.85;;
29838;SDS011;18669;53.356;-1.464;2023-08-06T03:17:56;6.75;;;3.03;;
29838;SDS011;18669;53.356;-1.464;2023-08-06T03:20:41;4.20;;;2.85;;
29838;SDS011;18669;53.356;-1.464;2023-08-06T03:23:26;4.40;;;2.70;;
29838;SDS011;18669;53.356;-1.464;2023-08-06T03:26:11;4.70;;;2.63;;
29838;SDS011;18669;53.356;-1.464;2023-08-06T03:28:55;3.53;;;2.60;;
29838;SDS011;18669;53.356;-1.464;2023-08-06T03:31:40;5.43;;;2.95;;
29838;SDS011;18669;53.356;-1.464;2023-08-06T03:34:25;4.68;;;2.55;;
29838;SDS011;18669;53.356;-1.464;2023-08-06T03:37:10;3.38;;;2.47;;
29838;SDS011;18669;53.356;-1.464;2023-08-06T03:39:55;4.55;;;2.70;;
29838;SDS011;18669;53.356;-1.464;2023-08-06T03:42:40;3.78;;;2.55;;
29838;SDS011;18669;53.356;-1.464;2023-08-06T03:45:24;5.15;;;2.75;;
29838;SDS011;18669;53.356;-1.464;2023-08-06T03:48:09;3.88;;;2.65;;
29838;SDS011;18669;53.356;-1.464;2023-08-06T03:50:54;2.90;;;2.30;;
29838;SDS011;18669;53.356;-1.464;2023-08-06T03:53:39;4.43;;;2.60;;
29838;SDS011;18669;53.356;-1.464;2023-08-06T03:56:24;4.53;;;2.83;;
29838;SDS011;18669;53.356;-1.464;2023-08-06T03:59:09;4.65;;;2.70;;
29838;SDS011;18669;53.356;-1.464;2023-08-06T04:01:54;7.85;;;2.70;;
29838;SDS011;18669;53.356;-1.464;2023-08-06T04:04:39;7.53;;;2.47;;
29838;SDS011;18669;53.356;-1.464;2023-08-06T04:07:24;3.50;;;2.67;;
29838;SDS011;18669;53.356;-1.464;2023-08-06T04:10:09;4.10;;;2.90;;
29838;SDS011;18669;53.356;-1.464;2023-08-06T04:12:54;5.53;;;3.00;;
29838;SDS011;18669;53.356;-1.464;2023-08-06T04:15:39;5.88;;;2.78;;
29838;SDS011;18669;53.356;-1.464;2023-08-06T04:18:24;6.30;;;2.63;;
29838;SDS011;18669;53.356;-1.464;2023-08-06T04:21:09;3.83;;;2.58;;
29838;SDS011;18669;53.356;-1.464;2023-08-06T04:23:53;6.05;;;2.67;;
29838;SDS011;18669;53.356;-1.464;2023-08-06T04:26:38;4.38;;;2.70;;
29838;SDS011;18669;53.356;-1.464;2023-08-06T04:29:23;7.85;;;2.80;;
29838;SDS011;18669;53.356;-1.464;2023-08-06T04:32:09;4.65;;;2.60;;
29838;SDS011;18669;53.356;-1.464;2023-08-06T04:34:55;5.75;;;2.40;;
29838;SDS011;18669;53.356;-1.464;2023-08-06T04:37:40;4.10;;;2.75;;
29838;SDS011;18669;53.356;-1.464;2023-08-06T04:40:25;5.15;;;2.60;;
29838;SDS011;18669;53.356;-1.464;2023-08-06T04:43:10;3.13;;;2.53;;
29838;SDS011;18669;53.356;-1.464;2023-08-06T04:45:55;4.22;;;2.70;;
29838;SDS011;18669;53.356;-1.464;2023-08-06T04:48:40;4.63;;;2.55;;
29838;SDS011;18669;53.356;-1.464;2023-08-06T04:51:25;5.68;;;2.85;;
29838;SDS011;18669;53.356;-1.464;2023-08-06T04:54:10;6.13;;;2.95;;
29838;SDS011;18669;53.356;-1.464;2023-08-06T04:56:55;3.08;;;2.60;;
29838;SDS011;18669;53.356;-1.464;2023-08-06T04:59:40;7.15;;;3.05;;
29838;SDS011;18669;53.356;-1.464;2023-08-06T05:02:25;5.07;;;2.67;;
29838;SDS011;18669;53.356;-1.464;2023-08-06T05:05:10;3.55;;;2.30;;
29838;SDS011;18669;53.356;-1.464;2023-08-06T05:07:55;3.78;;;2.58;;
29838;SDS011;18669;53.356;-1.464;2023-08-06T05:10:42;4.05;;;2.42;;
29838;SDS011;18669;53.356;-1.464;2023-08-06T05:13:27;6.40;;;2.80;;
29838;SDS011;18669;53.356;-1.464;2023-08-06T05:16:12;4.22;;;2.65;;
29838;SDS011;18669;53.356;-1.464;2023-08-06T05:18:57;6.78;;;2.70;;
29838;SDS011;18669;53.356;-1.464;2023-08-06T05:21:42;4.90;;;2.75;;
29838;SDS011;18669;53.356;-1.464;2023-08-06T05:24:27;6.10;;;2.72;;
29838;SDS011;18669;53.356;-1.464;2023-08-06T05:27:12;3.47;;;2.60;;
29838;SDS011;18669;53.356;-1.464;2023-08-06T05:29:57;3.35;;;2.75;;
29838;SDS011;18669;53.356;-1.464;2023-08-06T05:32:42;6.03;;;2.45;;
29838;SDS011;18669;53.356;-1.464;2023-08-06T05:35:27;2.35;;;2.05;;
29838;SDS011;18669;53.356;-1.464;2023-08-06T05:38:12;4.25;;;2.50;;
29838;SDS011;18669;53.356;-1.464;2023-08-06T05:40:57;3.75;;;2.50;;
29838;SDS011;18669;53.356;-1.464;2023-08-06T05:43:42;3.15;;;2.40;;
29838;SDS011;18669;53.356;-1.464;2023-08-06T05:46:27;4.07;;;2.45;;
29838;SDS011;18669;53.356;-1.464;2023-08-06T05:49:11;4.47;;;2.33;;
29838;SDS011;18669;53.356;-1.464;2023-08-06T05:51:58;6.80;;;2.83;;
29838;SDS011;18669;53.356;-1.464;2023-08-06T05:54:43;4.80;;;2.60;;
29838;SDS011;18669;53.356;-1.464;2023-08-06T05:57:27;2.72;;;2.25;;
29838;SDS011;18669;53.356;-1.464;2023-08-06T06:00:12;4.05;;;2.38;;
29838;SDS011;18669;53.356;-1.464;2023-08-06T06:02:57;3.50;;;2.25;;
29838;SDS011;18669;53.356;-1.464;2023-08-06T06:05:42;7.80;;;2.50;;
29838;SDS011;18669;53.356;-1.464;2023-08-06T06:08:27;5.47;;;2.70;;
29838;SDS011;18669;53.356;-1.464;2023-08-06T06:11:12;5.45;;;2.88;;
29838;SDS011;18669;53.356;-1.464;2023-08-06T06:13:57;3.78;;;2.42;;
29838;SDS011;18669;53.356;-1.464;2023-08-06T06:16:41;4.22;;;2.40;;
29838;SDS011;18669;53.356;-1.464;2023-08-06T06:19:26;4.13;;;2.28;;
29838;SDS011;18669;53.356;-1.464;2023-08-06T06:22:11;3.38;;;2.28;;
29838;SDS011;18669;53.356;-1.464;2023-08-06T06:24:56;3.97;;;2.22;;
29838;SDS011;18669;53.356;-1.464;2023-08-06T06:27:41;5.22;;;2.30;;
29838;SDS011;18669;53.356;-1.464;2023-08-06T06:30:26;5.82;;;2.25;;
29838;SDS011;18669;53.356;-1.464;2023-08-06T06:33:11;3.40;;;2.08;;
29838;SDS011;18669;53.356;-1.464;2023-08-06T06:35:56;4.43;;;2.10;;
29838;SDS011;18669;53.356;-1.464;2023-08-06T06:38:41;2.35;;;1.92;;
29838;SDS011;18669;53.356;-1.464;2023-08-06T06:41:28;4.63;;;2.63;;
29838;SDS011;18669;53.356;-1.464;2023-08-06T06:44:17;4.95;;;2.20;;
29838;SDS011;18669;53.356;-1.464;2023-08-06T06:50:04;2.75;;;2.10;;
29838;SDS011;18669;53.356;-1.464;2023-08-06T06:52:49;5.20;;;2.00;;
29838;SDS011;18669;53.356;-1.464;2023-08-06T06:55:34;3.17;;;1.90;;
29838;SDS011;18669;53.356;-1.464;2023-08-06T06:58:18;2.85;;;1.98;;
29838;SDS011;18669;53.356;-1.464;2023-08-06T07:01:03;3.80;;;1.80;;
29838;SDS011;18669;53.356;-1.464;2023-08-06T07:03:48;5.95;;;1.95;;
29838;SDS011;18669;53.356;-1.464;2023-08-06T07:06:33;3.38;;;2.00;;
29838;SDS011;18669;53.356;-1.464;2023-08-06T07:09:18;2.65;;;1.75;;
29838;SDS011;18669;53.356;-1.464;2023-08-06T07:12:03;3.03;;;2.28;;
29838;SDS011;18669;53.356;-1.464;2023-08-06T07:14:48;5.18;;;2.05;;
29838;SDS011;18669;53.356;-1.464;2023-08-06T07:17:33;1.92;;;1.65;;
29838;SDS011;18669;53.356;-1.464;2023-08-06T07:20:18;1.85;;;1.55;;
29838;SDS011;18669;53.356;-1.464;2023-08-06T07:23:03;8.32;;;2.08;;
29838;SDS011;18669;53.356;-1.464;2023-08-06T07:25:48;4.85;;;2.25;;
29838;SDS011;18669;53.356;-1.464;2023-08-06T07:28:33;2.13;;;1.67;;
29838;SDS011;18669;53.356;-1.464;2023-08-06T07:31:18;4.80;;;1.85;;
29838;SDS011;18669;53.356;-1.464;2023-08-06T07:34:03;4.65;;;1.95;;
29838;SDS011;18669;53.356;-1.464;2023-08-06T07:36:48;2.85;;;1.70;;
29838;SDS011;18669;53.356;-1.464;2023-08-06T07:39:33;2.50;;;1.65;;
29838;SDS011;18669;53.356;-1.464;2023-08-06T07:42:18;2.95;;;1.85;;
29838;SDS011;18669;53.356;-1.464;2023-08-06T07:47:50;3.33;;;1.55;;
29838;SDS011;18669;53.356;-1.464;2023-08-06T07:50:35;4.53;;;1.50;;
29838;SDS011;18669;53.356;-1.464;2023-08-06T07:53:21;2.67;;;1.77;;
29838;SDS011;18669;53.356;-1.464;2023-08-06T07:56:06;4.75;;;1.77;;
29838;SDS011;18669;53.356;-1.464;2023-08-06T07:58:51;1.85;;;1.50;;
29838;SDS011;18669;53.356;-1.464;2023-08-06T08:01:36;4.10;;;1.75;;
29838;SDS011;18669;53.356;-1.464;2023-08-06T08:04:21;3.28;;;1.80;;
29838;SDS011;18669;53.356;-1.464;2023-08-06T08:07:06;3.72;;;1.80;;
29838;SDS011;18669;53.356;-1.464;2023-08-06T08:09:54;2.85;;;1.70;;
29838;SDS011;18669;53.356;-1.464;2023-08-06T08:12:39;2.63;;;1.95;;
29838;SDS011;18669;53.356;-1.464;2023-08-06T08:15:24;4.82;;;2.05;;
29838;SDS011;18669;53.356;-1.464;2023-08-06T08:18:11;2.40;;;1.60;;
29838;SDS011;18669;53.356;-1.464;2023-08-06T08:20:56;3.45;;;1.85;;
29838;SDS011;18669;53.356;-1.464;2023-08-06T08:23:41;2.10;;;1.40;;
29838;SDS011;18669;53.356;-1.464;2023-08-06T08:29:12;2.17;;;1.70;;
29838;SDS011;18669;53.356;-1.464;2023-08-06T08:31:57;3.25;;;1.52;;
29838;SDS011;18669;53.356;-1.464;2023-08-06T08:34:42;2.70;;;1.73;;
29838;SDS011;18669;53.356;-1.464;2023-08-06T08:37:32;2.90;;;1.98;;
29838;SDS011;18669;53.356;-1.464;2023-08-06T08:40:17;2.75;;;1.75;;
29838;SDS011;18669;53.356;-1.464;2023-08-06T08:43:02;3.60;;;1.85;;
29838;SDS011;18669;53.356;-1.464;2023-08-06T08:45:52;4.97;;;2.10;;
29838;SDS011;18669;53.356;-1.464;2023-08-06T08:48:45;2.53;;;1.50;;
29838;SDS011;18669;53.356;-1.464;2023-08-06T08:51:31;4.75;;;1.70;;
29838;SDS011;18669;53.356;-1.464;2023-08-06T08:54:19;2.97;;;1.67;;
29838;SDS011;18669;53.356;-1.464;2023-08-06T08:57:08;2.78;;;1.50;;
29838;SDS011;18669;53.356;-1.464;2023-08-06T08:59:53;3.30;;;1.63;;
29838;SDS011;18669;53.356;-1.464;2023-08-06T09:02:38;5.97;;;1.48;;
29838;SDS011;18669;53.356;-1.464;2023-08-06T09:05:25;2.83;;;1.70;;
29838;SDS011;18669;53.356;-1.464;2023-08-06T09:08:15;4.93;;;1.63;;
29838;SDS011;18669;53.356;-1.464;2023-08-06T09:11:04;3.30;;;1.60;;
29838;SDS011;18669;53.356;-1.464;2023-08-06T09:13:52;3.28;;;1.55;;
29838;SDS011;18669;53.356;-1.464;2023-08-06T09:16:38;2.53;;;1.63;;
29838;SDS011;18669;53.356;-1.464;2023-08-06T09:19:23;2.30;;;1.45;;
29838;SDS011;18669;53.356;-1.464;2023-08-06T09:22:07;3.03;;;1.50;;
29838;SDS011;18669;53.356;-1.464;2023-08-06T09:24:57;2.35;;;1.73;;
29838;SDS011;18669;53.356;-1.464;2023-08-06T09:27:45;3.60;;;1.60;;
29838;SDS011;18669;53.356;-1.464;2023-08-06T09:30:32;2.67;;;1.38;;
29838;SDS011;18669;53.356;-1.464;2023-08-06T09:33:18;3.60;;;1.40;;
29838;SDS011;18669;53.356;-1.464;2023-08-06T09:36:07;4.33;;;1.57;;
29838;SDS011;18669;53.356;-1.464;2023-08-06T09:38:55;2.47;;;1.40;;
29838;SDS011;18669;53.356;-1.464;2023-08-06T09:41:41;2.97;;;1.40;;
29838;SDS011;18669;53.356;-1.464;2023-08-06T09:44:27;2.20;;;1.17;;
29838;SDS011;18669;53.356;-1.464;2023-08-06T09:47:16;1.40;;;1.30;;
29838;SDS011;18669;53.356;-1.464;2023-08-06T09:50:02;1.70;;;1.40;;
29838;SDS011;18669;53.356;-1.464;2023-08-06T09:52:47;1.50;;;1.30;;
29838;SDS011;18669;53.356;-1.464;2023-08-06T09:55:33;3.08;;;1.38;;
29838;SDS011;18669;53.356;-1.464;2023-08-06T09:58:18;3.47;;;1.30;;
29838;SDS011;18669;53.356;-1.464;2023-08-06T10:01:07;4.50;;;1.40;;
29838;SDS011;18669;53.356;-1.464;2023-08-06T10:04:01;2.05;;;1.42;;
29838;SDS011;18669;53.356;-1.464;2023-08-06T10:06:48;2.97;;;1.50;;
29838;SDS011;18669;53.356;-1.464;2023-08-06T10:09:33;3.17;;;1.40;;
29838;SDS011;18669;53.356;-1.464;2023-08-06T10:12:18;2.33;;;1.10;;
29838;SDS011;18669;53.356;-1.464;2023-08-06T10:20:37;2.53;;;1.40;;
29838;SDS011;18669;53.356;-1.464;2023-08-06T10:23:31;1.52;;;1.27;;
29838;SDS011;18669;53.356;-1.464;2023-08-06T10:26:19;1.38;;;1.20;;
29838;SDS011;18669;53.356;-1.464;2023-08-06T10:32:20;1.98;;;1.20;;
29838;SDS011;18669;53.356;-1.464;2023-08-06T10:35:06;1.60;;;1.30;;
29838;SDS011;18669;53.356;-1.464;2023-08-06T10:37:51;2.70;;;1.40;;
29838;SDS011;18669;53.356;-1.464;2023-08-06T10:40:36;1.23;;;1.13;;
29838;SDS011;18669;53.356;-1.464;2023-08-06T10:43:30;1.40;;;1.10;;
29838;SDS011;18669;53.356;-1.464;2023-08-06T10:46:26;1.90;;;1.40;;
29838;SDS011;18669;53.356;-1.464;2023-08-06T10:49:12;4.53;;;1.30;;
29838;SDS011;18669;53.356;-1.464;2023-08-06T10:52:01;1.92;;;1.15;;
29838;SDS011;18669;53.356;-1.464;2023-08-06T10:54:46;2.03;;;1.30;;
29838;SDS011;18669;53.356;-1.464;2023-08-06T10:57:31;2.13;;;1.27;;
29838;SDS011;18669;53.356;-1.464;2023-08-06T11:00:16;2.35;;;1.30;;
29838;SDS011;18669;53.356;-1.464;2023-08-06T11:03:01;4.18;;;1.50;;
29838;SDS011;18669;53.356;-1.464;2023-08-06T11:05:50;1.70;;;1.30;;
29838;SDS011;18669;53.356;-1.464;2023-08-06T11:08:37;2.53;;;1.70;;
29838;SDS011;18669;53.356;-1.464;2023-08-06T11:11:23;2.08;;;1.50;;
29838;SDS011;18669;53.356;-1.464;2023-08-06T11:14:14;1.50;;;1.30;;
29838;SDS011;18669;53.356;-1.464;2023-08-06T11:16:59;1.85;;;1.38;;
29838;SDS011;18669;53.356;-1.464;2023-08-06T11:19:44;1.42;;;1.13;;
29838;SDS011;18669;53.356;-1.464;2023-08-06T11:22:29;2.38;;;1.27;;
29838;SDS011;18669;53.356;-1.464;2023-08-06T11:25:14;1.95;;;1.30;;
29838;SDS011;18669;53.356;-1.464;2023-08-06T11:28:00;2.33;;;1.40;;
29838;SDS011;18669;53.356;-1.464;2023-08-06T11:30:45;1.83;;;1.40;;
29838;SDS011;18669;53.356;-1.464;2023-08-06T11:33:30;1.85;;;1.60;;
29838;SDS011;18669;53.356;-1.464;2023-08-06T11:36:15;3.27;;;1.03;;
29838;SDS011;18669;53.356;-1.464;2023-08-06T11:39:00;3.65;;;1.30;;
29838;SDS011;18669;53.356;-1.464;2023-08-06T11:41:47;1.27;;;1.10;;
29838;SDS011;18669;53.356;-1.464;2023-08-06T11:44:36;1.02;;;0.80;;
29838;SDS011;18669;53.356;-1.464;2023-08-06T11:47:20;3.80;;;1.15;;
29838;SDS011;18669;53.356;-1.464;2023-08-06T11:50:05;1.20;;;1.08;;
29838;SDS011;18669;53.356;-1.464;2023-08-06T11:52:57;1.45;;;1.00;;
29838;SDS011;18669;53.356;-1.464;2023-08-06T11:55:43;1.65;;;1.10;;
29838;SDS011;18669;53.356;-1.464;2023-08-06T11:58:28;2.15;;;0.98;;
29838;SDS011;18669;53.356;-1.464;2023-08-06T12:01:13;3.30;;;1.42;;
29838;SDS011;18669;53.356;-1.464;2023-08-06T12:04:07;1.23;;;1.08;;
29838;SDS011;18669;53.356;-1.464;2023-08-06T12:06:52;1.13;;;1.00;;
29838;SDS011;18669;53.356;-1.464;2023-08-06T12:09:37;1.17;;;1.00;;
29838;SDS011;18669;53.356;-1.464;2023-08-06T12:12:22;0.98;;;0.90;;
29838;SDS011;18669;53.356;-1.464;2023-08-06T12:15:10;1.13;;;0.98;;
29838;SDS011;18669;53.356;-1.464;2023-08-06T12:17:56;1.08;;;0.98;;
29838;SDS011;18669;53.356;-1.464;2023-08-06T12:20:41;3.50;;;0.95;;
29838;SDS011;18669;53.356;-1.464;2023-08-06T12:23:26;1.27;;;0.90;;
29838;SDS011;18669;53.356;-1.464;2023-08-06T12:26:11;1.20;;;1.10;;
29838;SDS011;18669;53.356;-1.464;2023-08-06T12:28:57;1.50;;;1.15;;
29838;SDS011;18669;53.356;-1.464;2023-08-06T12:31:42;1.50;;;1.05;;
29838;SDS011;18669;53.356;-1.464;2023-08-06T12:34:27;1.17;;;0.95;;
29838;SDS011;18669;53.356;-1.464;2023-08-06T12:37:12;1.20;;;1.02;;
29838;SDS011;18669;53.356;-1.464;2023-08-06T12:39:57;3.58;;;1.20;;
29838;SDS011;18669;53.356;-1.464;2023-08-06T12:42:42;0.88;;;0.85;;
29838;SDS011;18669;53.356;-1.464;2023-08-06T12:45:27;2.58;;;0.80;;
29838;SDS011;18669;53.356;-1.464;2023-08-06T12:48:12;1.60;;;1.08;;
29838;SDS011;18669;53.356;-1.464;2023-08-06T12:50:56;1.35;;;1.10;;
29838;SDS011;18669;53.356;-1.464;2023-08-06T12:53:41;2.13;;;1.00;;
29838;SDS011;18669;53.356;-1.464;2023-08-06T12:56:26;1.20;;;1.10;;
29838;SDS011;18669;53.356;-1.464;2023-08-06T12:59:11;0.88;;;0.88;;
29838;SDS011;18669;53.356;-1.464;2023-08-06T13:04:42;1.90;;;1.10;;
29838;SDS011;18669;53.356;-1.464;2023-08-06T13:07:27;2.22;;;1.30;;
29838;SDS011;18669;53.356;-1.464;2023-08-06T13:10:11;3.83;;;1.20;;
29838;SDS011;18669;53.356;-1.464;2023-08-06T13:12:56;1.15;;;1.05;;
29838;SDS011;18669;53.356;-1.464;2023-08-06T13:15:41;1.73;;;1.23;;
29838;SDS011;18669;53.356;-1.464;2023-08-06T13:18:26;1.65;;;1.20;;
29838;SDS011;18669;53.356;-1.464;2023-08-06T13:21:12;1.55;;;1.35;;
29838;SDS011;18669;53.356;-1.464;2023-08-06T13:23:57;2.50;;;1.33;;
29838;SDS011;18669;53.356;-1.464;2023-08-06T13:26:42;3.13;;;1.40;;
29838;SDS011;18669;53.356;-1.464;2023-08-06T13:29:27;2.15;;;1.60;;
29838;SDS011;18669;53.356;-1.464;2023-08-06T13:32:12;1.90;;;1.40;;
29838;SDS011;18669;53.356;-1.464;2023-08-06T13:34:57;4.22;;;1.70;;
29838;SDS011;18669;53.356;-1.464;2023-08-06T13:37:42;1.60;;;1.27;;
29838;SDS011;18669;53.356;-1.464;2023-08-06T13:40:27;2.15;;;1.42;;
29838;SDS011;18669;53.356;-1.464;2023-08-06T13:43:12;2.53;;;1.60;;
29838;SDS011;18669;53.356;-1.464;2023-08-06T13:45:57;3.35;;;1.60;;
29838;SDS011;18669;53.356;-1.464;2023-08-06T13:48:42;5.47;;;2.22;;
29838;SDS011;18669;53.356;-1.464;2023-08-06T13:51:27;2.63;;;1.77;;
29838;SDS011;18669;53.356;-1.464;2023-08-06T13:54:13;5.68;;;1.83;;
29838;SDS011;18669;53.356;-1.464;2023-08-06T13:57:01;4.80;;;1.60;;
29838;SDS011;18669;53.356;-1.464;2023-08-06T13:59:45;2.35;;;1.40;;
29838;SDS011;18669;53.356;-1.464;2023-08-06T14:02:30;1.52;;;1.35;;
29838;SDS011;18669;53.356;-1.464;2023-08-06T14:05:15;3.70;;;1.73;;
29838;SDS011;18669;53.356;-1.464;2023-08-06T14:08:00;4.93;;;1.63;;
29838;SDS011;18669;53.356;-1.464;2023-08-06T14:10:45;1.30;;;1.20;;
29838;SDS011;18669;53.356;-1.464;2023-08-06T14:13:30;4.25;;;1.75;;
29838;SDS011;18669;53.356;-1.464;2023-08-06T14:16:15;1.58;;;1.38;;
29838;SDS011;18669;53.356;-1.464;2023-08-06T14:19:00;1.65;;;1.48;;
29838;SDS011;18669;53.356;-1.464;2023-08-06T14:21:45;2.92;;;1.30;;
29838;SDS011;18669;53.356;-1.464;2023-08-06T14:24:30;1.80;;;1.30;;
29838;SDS011;18669;53.356;-1.464;2023-08-06T14:27:14;1.60;;;1.40;;
29838;SDS011;18669;53.356;-1.464;2023-08-06T14:29:59;1.60;;;1.30;;
29838;SDS011;18669;53.356;-1.464;2023-08-06T14:32:45;2.08;;;1.33;;
29838;SDS011;18669;53.356;-1.464;2023-08-06T14:35:31;1.20;;;1.10;;
29838;SDS011;18669;53.356;-1.464;2023-08-06T14:38:16;1.45;;;1.35;;
29838;SDS011;18669;53.356;-1.464;2023-08-06T14:41:00;2.40;;;1.30;;
29838;SDS011;18669;53.356;-1.464;2023-08-06T14:43:46;7.05;;;3.75;;
29838;SDS011;18669;53.356;-1.464;2023-08-06T14:46:31;1.80;;;1.40;;
29838;SDS011;18669;53.356;-1.464;2023-08-06T14:49:16;6.63;;;1.60;;
29838;SDS011;18669;53.356;-1.464;2023-08-06T14:52:01;3.40;;;1.60;;
29838;SDS011;18669;53.356;-1.464;2023-08-06T14:54:46;3.22;;;1.60;;
29838;SDS011;18669;53.356;-1.464;2023-08-06T14:57:31;2.47;;;1.70;;
29838;SDS011;18669;53.356;-1.464;2023-08-06T15:00:16;3.33;;;1.75;;
29838;SDS011;18669;53.356;-1.464;2023-08-06T15:03:01;2.95;;;1.50;;
29838;SDS011;18669;53.356;-1.464;2023-08-06T15:05:49;3.33;;;1.70;;
29838;SDS011;18669;53.356;-1.464;2023-08-06T15:08:33;3.95;;;1.70;;
29838;SDS011;18669;53.356;-1.464;2023-08-06T15:11:18;3.70;;;1.70;;
29838;SDS011;18669;53.356;-1.464;2023-08-06T15:14:04;2.45;;;1.63;;
29838;SDS011;18669;53.356;-1.464;2023-08-06T15:16:51;4.35;;;1.60;;
29838;SDS011;18669;53.356;-1.464;2023-08-06T15:19:37;3.85;;;1.60;;
29838;SDS011;18669;53.356;-1.464;2023-08-06T15:22:21;4.03;;;1.42;;
29838;SDS011;18669;53.356;-1.464;2023-08-06T15:25:06;1.77;;;1.30;;
29838;SDS011;18669;53.356;-1.464;2023-08-06T15:27:51;2.90;;;1.40;;
29838;SDS011;18669;53.356;-1.464;2023-08-06T15:30:36;1.60;;;1.20;;
29838;SDS011;18669;53.356;-1.464;2023-08-06T15:33:21;1.70;;;1.50;;
29838;SDS011;18669;53.356;-1.464;2023-08-06T15:36:06;1.77;;;1.10;;
29838;SDS011;18669;53.356;-1.464;2023-08-06T15:38:51;2.85;;;1.20;;
29838;SDS011;18669;53.356;-1.464;2023-08-06T15:41:36;3.42;;;1.20;;
29838;SDS011;18669;53.356;-1.464;2023-08-06T15:44:21;1.95;;;1.38;;
29838;SDS011;18669;53.356;-1.464;2023-08-06T15:47:06;2.38;;;1.50;;
29838;SDS011;18669;53.356;-1.464;2023-08-06T15:49:51;1.70;;;1.40;;
29838;SDS011;18669;53.356;-1.464;2023-08-06T15:52:36;2.20;;;1.52;;
29838;SDS011;18669;53.356;-1.464;2023-08-06T15:55:20;7.18;;;1.50;;
29838;SDS011;18669;53.356;-1.464;2023-08-06T15:58:05;6.38;;;1.40;;
29838;SDS011;18669;53.356;-1.464;2023-08-06T16:00:50;1.70;;;1.40;;
29838;SDS011;18669;53.356;-1.464;2023-08-06T16:03:37;1.65;;;1.15;;
29838;SDS011;18669;53.356;-1.464;2023-08-06T16:06:23;1.58;;;1.25;;
29838;SDS011;18669;53.356;-1.464;2023-08-06T16:09:08;2.95;;;1.30;;
29838;SDS011;18669;53.356;-1.464;2023-08-06T16:11:53;2.13;;;1.40;;
29838;SDS011;18669;53.356;-1.464;2023-08-06T16:14:39;1.50;;;1.25;;
29838;SDS011;18669;53.356;-1.464;2023-08-06T16:20:10;2.05;;;1.10;;
29838;SDS011;18669;53.356;-1.464;2023-08-06T16:22:55;3.97;;;1.08;;
29838;SDS011;18669;53.356;-1.464;2023-08-06T16:25:40;1.10;;;0.70;;
29838;SDS011;18669;53.356;-1.464;2023-08-06T16:28:31;1.67;;;0.70;;
29838;SDS011;18669;53.356;-1.464;2023-08-06T16:31:16;0.77;;;0.77;;
29838;SDS011;18669;53.356;-1.464;2023-08-06T16:34:02;1.17;;;0.80;;
29838;SDS011;18669;53.356;-1.464;2023-08-06T16:36:47;0.80;;;0.80;;
29838;SDS011;18669;53.356;-1.464;2023-08-06T16:39:32;4.35;;;1.02;;
29838;SDS011;18669;53.356;-1.464;2023-08-06T16:42:16;3.28;;;1.00;;
29838;SDS011;18669;53.356;-1.464;2023-08-06T16:45:01;0.73;;;0.70;;
29838;SDS011;18669;53.356;-1.464;2023-08-06T16:47:47;0.85;;;0.80;;
29838;SDS011;18669;53.356;-1.464;2023-08-06T16:50:33;1.13;;;0.90;;